Time;durP1;ratioP1;P1;durP2;ratioP2;P2;SDS_P1;SDS_P2;PMS_P1;PMS_P2;Temp;Humidity;BMP_temperature;BMP_pressure;BME280_temperature;BME280_humidity;BME280_pressure;Samples;Min_cycle;Max_cycle;Signal;HPM_P1;HPM_P2
2022/11/16 00:01:27;;;;;;;4.05;2.97;;;10.50;99.90;;;;;;4893517;29;20198;-76
2022/11/16 00:03:57;;;;;;;2.70;2.45;;;10.50;99.90;;;;;;4872552;29;20040;-76
2022/11/16 00:06:22;;;;;;;4.18;3.03;;;10.50;99.90;;;;;;4893141;29;20409;-77
2022/11/16 00:11:40;;;;;;;3.65;2.90;;;10.50;99.90;;;;;;4877836;29;20132;-78
2022/11/16 00:14:06;;;;;;;3.05;2.75;;;10.50;99.90;;;;;;4878135;29;20127;-77
2022/11/16 00:16:32;;;;;;;3.60;3.30;;;10.50;99.90;;;;;;4894327;29;20139;-78
2022/11/16 00:19:02;;;;;;;4.20;3.10;;;10.50;99.90;;;;;;4878677;29;20116;-77
2022/11/16 00:21:28;;;;;;;3.55;2.85;;;10.50;99.90;;;;;;4896001;29;20548;-78
2022/11/16 00:23:54;;;;;;;;;;;10.50;99.90;;;;;;4864245;29;20057;-78
2022/11/16 00:26:20;;;;;;;4.00;3.40;;;10.50;99.90;;;;;;4879155;29;19931;-78
2022/11/16 00:28:46;;;;;;;5.10;3.95;;;10.50;99.90;;;;;;4879183;29;20062;-78
2022/11/16 00:31:14;;;;;;;4.72;4.10;;;10.50;99.90;;;;;;4879510;29;20052;-77
2022/11/16 00:33:39;;;;;;;5.45;4.18;;;10.50;99.90;;;;;;4894978;29;20046;-79
2022/11/16 00:36:09;;;;;;;4.30;3.88;;;10.50;99.90;;;;;;4894502;29;20064;-78
2022/11/16 00:38:35;;;;;;;4.25;3.78;;;10.50;99.90;;;;;;4895256;29;20107;-76
2022/11/16 00:41:00;;;;;;;4.50;3.90;;;10.50;99.90;;;;;;4896233;29;20048;-78
2022/11/16 00:43:27;;;;;;;3.90;3.47;;;10.40;99.90;;;;;;4879410;29;20048;-77
2022/11/16 00:45:52;;;;;;;4.93;3.90;;;10.50;99.90;;;;;;4894156;29;20099;-78
2022/11/16 00:48:19;;;;;;;4.20;3.53;;;10.40;99.90;;;;;;4863988;29;20053;-78
2022/11/16 00:50:45;;;;;;;4.90;3.75;;;10.40;99.90;;;;;;4881292;29;20067;-78
2022/11/16 00:53:13;;;;;;;5.20;4.28;;;10.40;99.90;;;;;;4882140;29;20099;-78
2022/11/16 00:55:39;;;;;;;5.35;4.53;;;10.50;99.90;;;;;;4885888;29;20149;-78
2022/11/16 00:58:05;;;;;;;5.47;4.40;;;10.40;99.90;;;;;;4906592;29;20198;-78
2022/11/16 01:00:31;;;;;;;4.50;4.05;;;10.40;99.90;;;;;;4917915;29;20040;-77
2022/11/16 01:02:57;;;;;;;4.93;3.78;;;10.50;99.90;;;;;;4886432;29;20049;-78
2022/11/16 01:05:23;;;;;;;4.22;3.80;;;10.40;99.90;;;;;;4875102;29;20153;-78
2022/11/16 01:07:49;;;;;;;5.65;3.55;;;10.40;99.90;;;;;;4898054;29;20087;-79
2022/11/16 01:10:18;;;;;;;4.55;3.60;;;10.50;99.90;;;;;;4884950;29;20055;-78
2022/11/16 01:12:45;;;;;;;4.90;3.95;;;10.40;99.90;;;;;;4896254;29;20041;-79
2022/11/16 01:15:10;;;;;;;4.35;3.92;;;10.40;99.90;;;;;;4902200;29;20040;-78
2022/11/16 01:17:38;;;;;;;4.53;4.07;;;10.40;99.90;;;;;;4881911;29;20153;-78
2022/11/16 01:20:06;;;;;;;5.53;4.32;;;10.40;99.90;;;;;;4875274;29;20057;-78
2022/11/16 01:22:37;;;;;;;5.30;4.22;;;10.40;99.90;;;;;;4897985;29;20059;-78
2022/11/16 01:25:03;;;;;;;4.95;4.45;;;10.40;99.90;;;;;;4897527;29;20052;-79
2022/11/16 01:27:29;;;;;;;4.78;4.25;;;10.40;99.90;;;;;;4907755;29;20040;-77
2022/11/16 01:29:55;;;;;;;5.93;4.40;;;10.40;99.90;;;;;;4906048;29;20134;-78
2022/11/16 01:32:21;;;;;;;5.38;4.30;;;10.40;99.90;;;;;;4887416;29;20081;-78
2022/11/16 01:34:46;;;;;;;5.07;4.20;;;10.40;99.90;;;;;;4881917;29;20051;-78
2022/11/16 01:37:12;;;;;;;4.82;4.00;;;10.50;99.90;;;;;;4884507;29;20076;-78
2022/11/16 01:39:38;;;;;;;5.22;3.85;;;10.50;99.90;;;;;;4892690;29;20048;-78
2022/11/16 01:42:04;;;;;;;4.18;3.50;;;10.40;99.90;;;;;;4882432;29;20060;-78
2022/11/16 01:44:32;;;;;;;4.55;3.60;;;10.40;99.90;;;;;;4897648;29;20055;-78
2022/11/16 01:46:59;;;;;;;5.00;3.58;;;10.40;99.90;;;;;;4897486;29;20063;-78
2022/11/16 01:49:26;;;;;;;;;;;10.50;99.90;;;;;;4909070;29;20064;-78
2022/11/16 01:51:56;;;;;;;4.40;3.38;;;10.40;99.90;;;;;;4897415;29;19919;-78
2022/11/16 01:54:22;;;;;;;4.10;3.70;;;10.50;99.90;;;;;;4881405;29;20044;-78
2022/11/16 01:56:51;;;;;;;3.10;2.80;;;10.50;99.90;;;;;;4897123;29;20548;-79
2022/11/16 01:59:17;;;;;;;3.42;2.78;;;10.40;99.90;;;;;;4896892;29;20056;-78
2022/11/16 02:01:43;;;;;;;4.50;3.63;;;10.50;99.90;;;;;;4897549;29;20373;-78
2022/11/16 02:04:10;;;;;;;3.60;3.08;;;10.50;99.90;;;;;;4898889;29;20037;-78
2022/11/16 02:07:00;;;;;;;4.15;3.58;;;10.50;99.90;;;;;;4904771;29;20104;-79
2022/11/16 02:09:57;;;;;;;5.00;4.15;;;10.50;99.90;;;;;;4896010;29;20132;-79
2022/11/16 02:12:44;;;;;;;3.83;3.42;;;10.50;99.90;;;;;;4909810;29;20101;-79
2022/11/16 02:15:23;;;;;;;3.35;3.00;;;10.50;99.90;;;;;;4894553;29;20060;-79
2022/11/16 02:18:04;;;;;;;3.60;3.30;;;10.50;99.90;;;;;;4898339;29;20071;-79
2022/11/16 02:20:56;;;;;;;3.80;3.28;;;10.50;99.90;;;;;;4911280;29;20083;-79
2022/11/16 02:23:37;;;;;;;4.22;3.38;;;10.50;99.90;;;;;;4898312;29;20052;-79
2022/11/16 02:26:21;;;;;;;3.67;3.30;;;10.50;99.90;;;;;;4882269;29;20128;-79
2022/11/16 02:29:03;;;;;;;4.18;3.45;;;10.50;99.90;;;;;;4883659;29;20036;-78
2022/11/16 02:31:41;;;;;;;3.20;2.72;;;10.60;99.90;;;;;;4878553;29;20049;-79
2022/11/16 02:34:10;;;;;;;2.97;2.67;;;10.50;99.90;;;;;;4892161;29;20036;-79
2022/11/16 02:36:38;;;;;;;2.65;2.40;;;10.50;99.90;;;;;;4896463;29;20057;-79
2022/11/16 02:39:11;;;;;;;3.65;2.90;;;10.50;99.90;;;;;;4913357;29;20083;-79
2022/11/16 02:41:40;;;;;;;3.80;3.00;;;10.60;99.90;;;;;;4902036;29;20104;-79
2022/11/16 02:44:11;;;;;;;4.78;3.17;;;10.50;99.90;;;;;;4885545;29;20054;-78
2022/11/16 02:46:42;;;;;;;3.65;2.97;;;10.50;99.90;;;;;;4893956;29;20079;-79
2022/11/16 02:49:18;;;;;;;2.88;2.55;;;10.50;99.90;;;;;;4884807;29;20064;-79
2022/11/16 02:51:46;;;;;;;3.80;3.00;;;10.60;99.90;;;;;;4900257;29;20373;-79
2022/11/16 02:54:23;;;;;;;3.63;2.45;;;10.60;99.90;;;;;;4897255;29;20052;-79
2022/11/16 02:57:00;;;;;;;4.05;3.42;;;10.60;99.90;;;;;;4891273;29;20504;-79
2022/11/16 02:59:38;;;;;;;5.47;3.45;;;10.60;99.90;;;;;;4898486;29;20123;-79
2022/11/16 03:02:40;;;;;;;4.93;3.72;;;10.60;99.90;;;;;;4885822;29;20045;-79
2022/11/16 03:05:17;;;;;;;5.07;3.65;;;10.70;99.90;;;;;;4898239;29;20068;-79
2022/11/16 03:07:52;;;;;;;4.35;3.35;;;10.60;99.90;;;;;;4892738;29;20068;-79
2022/11/16 03:13:07;;;;;;;3.55;3.00;;;10.70;99.90;;;;;;4899553;29;20052;-79
2022/11/16 03:15:37;;;;;;;4.03;3.30;;;10.60;99.90;;;;;;4887365;29;20043;-78
2022/11/16 03:18:04;;;;;;;3.47;3.10;;;10.70;99.90;;;;;;4886648;29;20119;-79
2022/11/16 03:20:32;;;;;;;4.53;3.30;;;10.60;99.90;;;;;;4898201;29;20113;-79
2022/11/16 03:23:02;;;;;;;5.70;4.22;;;10.60;99.90;;;;;;4909402;29;20056;-79
2022/11/16 03:25:41;;;;;;;4.28;3.78;;;10.60;99.90;;;;;;4914622;29;20103;-80
2022/11/16 03:28:21;;;;;;;3.65;3.10;;;10.70;99.90;;;;;;4880160;29;20476;-80
2022/11/16 03:31:14;;;;;;;3.88;3.30;;;10.70;99.90;;;;;;4897698;29;20554;-79
2022/11/16 03:33:52;;;;;;;4.28;3.60;;;10.70;99.90;;;;;;4897535;29;20095;-80
2022/11/16 03:36:28;;;;;;;5.30;3.72;;;10.70;99.90;;;;;;4898899;29;20048;-80
2022/11/16 03:38:59;;;;;;;4.30;3.83;;;10.60;99.90;;;;;;4883406;29;20087;-80
2022/11/16 03:41:26;;;;;;;4.75;4.30;;;10.60;99.90;;;;;;4896154;29;20044;-79
2022/11/16 03:43:55;;;;;;;6.05;4.10;;;10.60;99.90;;;;;;4865058;29;20057;-79
2022/11/16 03:46:21;;;;;;;4.15;3.70;;;10.60;99.90;;;;;;4895629;29;20437;-80
2022/11/16 03:48:47;;;;;;;3.90;3.50;;;10.60;99.90;;;;;;4878648;29;20080;-80
2022/11/16 03:51:13;;;;;;;4.25;3.75;;;10.60;99.90;;;;;;4864677;29;20107;-78
2022/11/16 03:53:39;;;;;;;5.03;3.33;;;10.70;99.90;;;;;;4895813;29;20139;-80
2022/11/16 03:56:05;;;;;;;4.40;3.60;;;10.50;99.90;;;;;;4908197;29;20080;-79
2022/11/16 03:58:31;;;;;;;4.55;3.80;;;10.60;99.90;;;;;;4909343;29;20052;-80
2022/11/16 04:00:57;;;;;;;3.38;3.08;;;10.60;99.90;;;;;;4906081;29;20045;-79
2022/11/16 04:03:22;;;;;;;5.88;4.78;;;10.70;99.90;;;;;;4880221;29;20044;-80
2022/11/16 04:25:25;;;;;;;3.80;3.33;;;10.60;99.90;;;;;;4908740;29;20142;-79
2022/11/16 04:38:50;;;;;;;4.45;3.80;;;10.50;99.90;;;;;;4882031;29;20056;-78
2022/11/16 04:44:00;;;;;;;4.22;3.72;;;10.40;99.90;;;;;;4908247;29;20056;-78
2022/11/16 04:49:10;;;;;;;5.47;4.45;;;10.50;99.90;;;;;;4883754;29;20767;-79
2022/11/16 04:51:35;;;;;;;5.05;4.15;;;10.40;99.90;;;;;;4896687;29;20115;-71
2022/11/16 04:54:01;;;;;;;3.95;3.55;;;10.40;99.90;;;;;;4895864;29;20166;-70
2022/11/16 04:56:27;;;;;;;5.07;4.13;;;10.40;99.90;;;;;;4897789;29;20052;-69
2022/11/16 04:58:52;;;;;;;3.97;3.58;;;10.60;99.90;;;;;;4881643;29;20044;-69
2022/11/16 05:02:06;;;;;;;4.70;4.10;;;10.50;99.90;;;;;;4895923;29;20552;-70
2022/11/16 05:04:03;;;;;;;3.50;3.20;;;10.40;99.90;;;;;;4894408;29;20151;-70
2022/11/16 05:06:29;;;;;;;4.13;3.72;;;10.60;99.90;;;;;;4895569;29;20127;-70
2022/11/16 05:08:55;;;;;;;4.50;3.53;;;10.50;99.90;;;;;;4895227;29;20480;-70
2022/11/16 05:11:20;;;;;;;3.55;3.17;;;10.60;99.90;;;;;;4894802;29;20123;-70
2022/11/16 05:13:46;;;;;;;4.40;4.00;;;10.50;99.90;;;;;;4880362;29;20120;-69
2022/11/16 05:16:11;;;;;;;4.68;3.85;;;10.40;99.90;;;;;;4910731;29;20079;-70
2022/11/16 05:18:37;;;;;;;3.97;3.40;;;10.40;99.90;;;;;;4894761;29;20049;-70
2022/11/16 05:21:03;;;;;;;4.28;3.70;;;10.60;99.90;;;;;;4897021;29;20052;-70
2022/11/16 05:26:13;;;;;;;4.10;3.47;;;10.50;99.90;;;;;;4898962;29;20053;-69
2022/11/16 05:28:38;;;;;;;5.00;3.55;;;10.40;99.90;;;;;;4912017;29;20400;-70
2022/11/16 05:31:04;;;;;;;4.10;3.70;;;10.60;99.90;;;;;;4869731;29;20175;-70
2022/11/16 05:33:30;;;;;;;4.38;3.97;;;10.60;99.90;;;;;;4890922;29;20468;-69
2022/11/16 05:35:55;;;;;;;3.53;3.22;;;10.60;99.90;;;;;;4892864;29;20084;-69
2022/11/16 05:38:21;;;;;;;4.43;3.55;;;10.40;99.90;;;;;;4894008;29;20488;-69
2022/11/16 05:40:47;;;;;;;3.63;3.30;;;10.60;99.90;;;;;;4893407;29;20155;-70
2022/11/16 05:43:12;;;;;;;4.65;3.70;;;10.60;99.90;;;;;;4897060;29;20044;-69
2022/11/16 05:45:38;;;;;;;4.80;3.53;;;10.60;99.90;;;;;;4894338;29;21021;-69
2022/11/16 05:48:04;;;;;;;3.15;2.85;;;10.50;99.90;;;;;;4896174;29;20064;-69
2022/11/16 05:50:29;;;;;;;3.28;2.97;;;10.60;99.90;;;;;;4916901;29;20051;-69
2022/11/16 05:52:55;;;;;;;4.05;3.63;;;10.40;99.90;;;;;;4904576;29;20049;-70
2022/11/16 05:55:21;;;;;;;3.95;3.55;;;10.40;99.90;;;;;;4896703;29;20139;-71
2022/11/16 05:57:46;;;;;;;3.85;3.38;;;10.40;99.90;;;;;;4880115;29;20093;-68
2022/11/16 06:00:13;;;;;;;4.00;3.47;;;10.60;99.90;;;;;;4883866;29;20111;-68
2022/11/16 06:02:38;;;;;;;;;;;10.50;99.90;;;;;;4900382;29;20771;-68
2022/11/16 06:05:04;;;;;;;4.20;3.72;;;10.40;99.90;;;;;;4916403;29;19952;-68
2022/11/16 06:07:30;;;;;;;4.28;3.78;;;10.40;99.90;;;;;;4896766;29;20044;-69
2022/11/16 06:09:55;;;;;;;3.90;3.50;;;10.40;99.90;;;;;;4895417;29;20471;-70
2022/11/16 06:12:21;;;;;;;3.88;3.45;;;10.40;99.90;;;;;;4879933;29;20044;-75
2022/11/16 06:14:47;;;;;;;4.40;4.00;;;10.50;99.90;;;;;;4909321;29;20127;-69
2022/11/16 06:17:15;;;;;;;3.85;3.45;;;10.60;99.90;;;;;;4894983;29;20041;-69
2022/11/16 06:19:41;;;;;;;3.20;2.90;;;10.60;99.90;;;;;;4888426;29;20049;-68
2022/11/16 06:22:09;;;;;;;3.38;2.78;;;10.60;99.90;;;;;;4889855;29;20047;-69
2022/11/16 06:24:35;;;;;;;4.10;3.50;;;10.60;99.90;;;;;;4872313;29;20053;-69
2022/11/16 06:27:01;;;;;;;4.50;4.10;;;10.60;99.90;;;;;;4893039;29;20044;-69
2022/11/16 06:29:26;;;;;;;4.07;3.35;;;10.60;99.90;;;;;;4889230;29;20044;-71
2022/11/16 06:31:52;;;;;;;5.10;3.90;;;10.40;99.90;;;;;;4889408;29;20085;-69
2022/11/16 06:34:17;;;;;;;3.30;3.00;;;10.40;99.90;;;;;;4895729;29;20055;-70
2022/11/16 06:36:43;;;;;;;3.10;2.63;;;10.40;99.90;;;;;;4874295;29;20045;-68
2022/11/16 06:39:10;;;;;;;2.50;2.30;;;10.40;99.90;;;;;;4895256;29;20111;-69
2022/11/16 06:41:36;;;;;;;2.72;2.42;;;10.40;99.90;;;;;;4898969;29;20131;-69
2022/11/16 06:44:02;;;;;;;2.55;2.22;;;10.50;99.90;;;;;;4903990;29;20120;-71
2022/11/16 06:46:27;;;;;;;2.65;2.42;;;10.60;99.90;;;;;;4873906;29;20076;-70
2022/11/16 06:48:54;;;;;;;4.18;3.45;;;10.40;99.90;;;;;;4895701;29;20833;-71
2022/11/16 06:51:20;;;;;;;5.00;4.50;;;10.40;99.90;;;;;;4895225;29;20049;-71
2022/11/16 06:53:46;;;;;;;4.60;4.00;;;10.40;99.90;;;;;;4894881;29;20376;-71
2022/11/16 06:56:13;;;;;;;3.67;3.03;;;10.50;99.90;;;;;;4892057;29;20048;-71
2022/11/16 06:58:39;;;;;;;3.20;2.90;;;10.60;99.90;;;;;;4881273;29;20048;-69
2022/11/16 07:01:10;;;;;;;2.85;2.38;;;10.70;99.90;;;;;;4893463;29;20058;-70
2022/11/16 07:03:36;;;;;;;3.03;2.70;;;10.60;99.90;;;;;;4879713;29;20449;-70
2022/11/16 07:06:07;;;;;;;3.60;3.20;;;10.60;99.90;;;;;;4908655;29;20156;-69
2022/11/16 07:08:33;;;;;;;4.18;3.78;;;10.60;99.90;;;;;;4895333;29;20032;-70
2022/11/16 07:11:02;;;;;;;2.95;2.65;;;10.50;99.90;;;;;;4879057;29;20048;-69
2022/11/16 07:13:29;;;;;;;3.30;2.70;;;10.60;99.90;;;;;;4898330;29;20050;-68
2022/11/16 07:16:06;;;;;;;2.92;2.63;;;10.50;99.90;;;;;;4895949;29;20083;-70
2022/11/16 07:18:34;;;;;;;2.33;2.13;;;10.40;99.90;;;;;;4889715;29;20049;-72
2022/11/16 07:21:07;;;;;;;2.47;2.05;;;10.70;99.90;;;;;;4892385;29;20580;-72
2022/11/16 07:23:33;;;;;;;2.65;2.20;;;10.70;99.90;;;;;;4915365;29;20096;-72
2022/11/16 07:26:00;;;;;;;;;;;10.60;99.90;;;;;;4897676;29;20045;-71
2022/11/16 07:28:28;;;;;;;2.80;2.50;;;10.70;99.90;;;;;;4878787;29;19923;-71
2022/11/16 07:30:55;;;;;;;2.25;1.80;;;10.70;99.90;;;;;;4894387;29;20552;-71
2022/11/16 07:33:21;;;;;;;1.75;1.58;;;10.50;99.90;;;;;;4893061;29;20124;-71
2022/11/16 07:35:46;;;;;;;1.80;1.60;;;10.70;99.90;;;;;;4893811;29;20060;-71
2022/11/16 07:38:12;;;;;;;1.52;1.40;;;10.60;99.90;;;;;;4888110;29;20661;-71
2022/11/16 07:40:38;;;;;;;1.50;1.20;;;10.60;99.90;;;;;;4881501;29;20468;-71
2022/11/16 07:43:03;;;;;;;1.10;0.93;;;10.50;99.90;;;;;;4892949;29;20521;-71
2022/11/16 07:45:29;;;;;;;0.85;0.73;;;10.60;99.90;;;;;;4876264;29;20041;-71
2022/11/16 07:47:55;;;;;;;0.65;0.60;;;10.60;99.90;;;;;;4893489;29;20064;-72
2022/11/16 07:50:20;;;;;;;0.80;0.60;;;10.50;99.90;;;;;;4875227;29;20120;-70
2022/11/16 07:52:46;;;;;;;0.60;0.60;;;10.70;99.90;;;;;;4877302;29;20080;-70
2022/11/16 07:55:12;;;;;;;1.00;0.63;;;10.40;99.90;;;;;;4893402;29;20048;-70
2022/11/16 07:57:38;;;;;;;0.65;0.60;;;10.60;99.90;;;;;;4876262;29;20059;-70
2022/11/16 08:00:04;;;;;;;0.93;0.77;;;10.40;99.90;;;;;;4892807;29;20049;-70
2022/11/16 08:02:30;;;;;;;0.50;0.50;;;10.60;99.90;;;;;;4873885;29;20155;-70
2022/11/16 08:04:56;;;;;;;0.50;0.50;;;10.60;99.90;;;;;;4870336;29;20048;-70
2022/11/16 08:07:21;;;;;;;0.70;0.70;;;10.50;99.90;;;;;;4891190;29;20049;-69
2022/11/16 08:09:48;;;;;;;1.40;1.25;;;10.60;99.90;;;;;;4875010;29;20047;-70
2022/11/16 08:12:15;;;;;;;1.20;1.10;;;10.60;99.90;;;;;;4893855;29;20051;-70
2022/11/16 08:14:41;;;;;;;1.33;1.20;;;10.60;99.90;;;;;;4878325;29;20055;-69
2022/11/16 08:17:07;;;;;;;1.70;1.50;;;10.50;99.90;;;;;;4888576;29;20040;-69
2022/11/16 08:19:33;;;;;;;2.50;1.90;;;10.40;99.90;;;;;;4890688;29;20093;-70
2022/11/16 08:21:59;;;;;;;2.40;1.90;;;10.60;99.90;;;;;;4892777;29;20047;-70
2022/11/16 08:24:25;;;;;;;1.85;1.48;;;10.50;99.90;;;;;;4875677;29;20394;-70
2022/11/16 08:26:50;;;;;;;2.30;1.80;;;10.70;99.90;;;;;;4885931;29;20041;-71
2022/11/16 08:29:16;;;;;;;1.80;1.52;;;10.50;99.90;;;;;;4891629;29;20044;-69
2022/11/16 08:31:43;;;;;;;3.50;2.40;;;10.40;99.90;;;;;;4895014;29;20378;-70
2022/11/16 08:34:08;;;;;;;3.10;2.60;;;10.70;99.90;;;;;;4891158;29;20052;-69
2022/11/16 08:36:34;;;;;;;2.88;2.60;;;10.30;99.90;;;;;;4875864;29;20052;-69
2022/11/16 08:39:00;;;;;;;3.35;2.80;;;10.80;99.90;;;;;;4895700;29;20048;-69
2022/11/16 08:41:26;;;;;;;3.13;2.63;;;10.40;99.90;;;;;;4860435;29;20091;-69
2022/11/16 08:43:52;;;;;;;3.53;3.22;;;10.40;99.90;;;;;;4892983;29;20044;-69
2022/11/16 08:46:19;;;;;;;2.65;2.40;;;10.80;99.90;;;;;;4875280;29;20055;-69
2022/11/16 08:48:45;;;;;;;2.35;2.08;;;10.80;99.90;;;;;;4886062;29;20061;-70
2022/11/16 08:51:13;;;;;;;2.50;2.30;;;10.30;99.90;;;;;;4892135;29;20128;-69
2022/11/16 08:53:39;;;;;;;3.33;2.88;;;10.20;99.90;;;;;;4889776;29;20040;-69
2022/11/16 08:56:07;;;;;;;4.50;3.80;;;10.90;99.90;;;;;;4906245;29;20051;-78
2022/11/16 08:58:37;;;;;;;3.40;3.08;;;10.90;99.90;;;;;;4876289;29;20063;-79
2022/11/16 09:01:13;;;;;;;3.55;3.00;;;10.70;99.90;;;;;;4892822;29;20062;-78
2022/11/16 09:03:40;;;;;;;;;;;10.30;99.90;;;;;;4890646;29;20063;-78
2022/11/16 09:06:06;;;;;;;2.70;2.50;;;10.30;99.90;;;;;;4872599;29;19923;-77
2022/11/16 09:08:32;;;;;;;;;;;10.80;99.90;;;;;;4914119;29;20115;-78
2022/11/16 09:10:58;;;;;;;3.55;3.25;;;10.40;99.90;;;;;;4889688;29;19934;-78
2022/11/16 09:13:24;;;;;;;3.60;3.10;;;10.60;99.90;;;;;;4896576;29;20045;-78
2022/11/16 09:15:56;;;;;;;;;;;10.50;99.90;;;;;;4895774;29;20469;-79
2022/11/16 09:18:23;;;;;;;3.22;2.85;;;10.70;99.90;;;;;;4899422;29;20022;-78
2022/11/16 09:20:48;;;;;;;;;;;10.50;99.90;;;;;;4901047;29;20044;-69
2022/11/16 09:23:14;;;;;;;3.70;3.30;;;10.60;99.90;;;;;;4885965;29;19938;-69
2022/11/16 09:25:40;;;;;;;5.10;4.60;;;10.50;99.90;;;;;;4903137;29;20131;-77
2022/11/16 09:28:07;;;;;;;;;;;10.80;99.90;;;;;;4900269;29;20099;-78
2022/11/16 09:30:33;;;;;;;4.68;4.20;;;10.70;99.90;;;;;;4894574;29;20002;-69
2022/11/16 09:32:59;;;;;;;5.75;4.13;;;10.60;99.90;;;;;;4877992;29;20123;-69
2022/11/16 09:35:25;;;;;;;4.28;3.88;;;10.70;99.90;;;;;;4890808;29;20131;-69
2022/11/16 09:37:51;;;;;;;3.60;3.30;;;11.10;99.90;;;;;;4895903;29;20127;-69
2022/11/16 09:40:17;;;;;;;4.93;4.28;;;10.70;99.90;;;;;;4897978;29;20048;-78
2022/11/16 09:42:45;;;;;;;4.20;3.75;;;11.10;99.90;;;;;;4890879;29;20096;-78
2022/11/16 09:45:36;;;;;;;4.38;3.70;;;10.80;99.90;;;;;;4884946;29;20168;-78
2022/11/16 09:48:05;;;;;;;4.75;4.25;;;11.10;99.90;;;;;;4882881;29;20047;-69
2022/11/16 09:50:55;;;;;;;3.85;3.40;;;10.70;99.90;;;;;;4906439;29;20072;-69
2022/11/16 09:53:41;;;;;;;4.00;3.45;;;11.00;99.90;;;;;;4897920;29;20131;-70
2022/11/16 09:56:16;;;;;;;4.18;3.72;;;10.80;99.90;;;;;;4906071;29;20058;-69
2022/11/16 09:59:00;;;;;;;3.55;3.20;;;11.10;99.90;;;;;;4898419;29;20131;-69
2022/11/16 10:02:05;;;;;;;4.70;4.20;;;10.90;99.90;;;;;;4911301;29;20040;-69
2022/11/16 10:04:45;;;;;;;4.60;4.20;;;11.30;99.90;;;;;;4861226;29;20067;-70
2022/11/16 10:07:15;;;;;;;4.97;4.40;;;11.40;99.90;;;;;;4904947;29;20044;-70
2022/11/16 10:09:43;;;;;;;5.07;3.88;;;11.20;99.90;;;;;;4877538;29;20045;-69
2022/11/16 10:12:29;;;;;;;4.40;3.97;;;11.40;99.90;;;;;;4880577;29;20040;-70
2022/11/16 10:15:33;;;;;;;3.88;3.38;;;11.30;99.90;;;;;;4889135;29;20044;-69
2022/11/16 10:18:26;;;;;;;3.85;3.20;;;11.30;99.90;;;;;;4893629;29;20135;-70
2022/11/16 10:21:00;;;;;;;3.95;3.20;;;11.40;99.90;;;;;;4904305;29;20044;-70
2022/11/16 10:24:07;;;;;;;4.43;4.03;;;11.20;99.90;;;;;;4891872;29;20040;-70
2022/11/16 10:26:48;;;;;;;4.10;3.45;;;11.20;99.90;;;;;;4798039;29;20061;-71
2022/11/16 10:29:23;;;;;;;3.40;3.10;;;11.30;99.90;;;;;;4867220;29;20107;-71
2022/11/16 10:32:06;;;;;;;3.25;2.90;;;11.50;99.90;;;;;;4907377;29;20056;-71
2022/11/16 10:34:53;;;;;;;3.35;3.03;;;11.30;99.90;;;;;;4893679;29;20096;-71
2022/11/16 10:37:20;;;;;;;4.30;3.78;;;11.30;99.90;;;;;;4877354;29;20044;-71
2022/11/16 10:39:48;;;;;;;4.32;3.92;;;11.30;99.90;;;;;;4892902;29;20049;-72
2022/11/16 10:42:20;;;;;;;5.32;4.25;;;11.40;99.90;;;;;;4897767;29;20044;-79
2022/11/16 10:44:55;;;;;;;3.55;3.25;;;11.50;99.90;;;;;;4877713;29;20051;-72
2022/11/16 10:47:41;;;;;;;5.03;4.53;;;11.50;99.90;;;;;;4890127;29;20135;-79
2022/11/16 10:50:46;;;;;;;5.20;4.70;;;11.60;99.90;;;;;;4878740;29;20041;-80
2022/11/16 10:53:26;;;;;;;4.97;4.10;;;11.60;99.90;;;;;;4826658;29;20136;-80
2022/11/16 10:56:00;;;;;;;3.88;3.47;;;11.70;99.90;;;;;;4831349;29;20056;-79
2022/11/16 10:58:25;;;;;;;4.70;3.88;;;11.80;99.90;;;;;;4868844;29;20134;-78
2022/11/16 11:00:51;;;;;;;5.35;4.53;;;11.70;99.90;;;;;;4894557;29;20123;-78
2022/11/16 11:03:30;;;;;;;4.93;4.03;;;11.80;99.90;;;;;;4891837;29;20044;-78
2022/11/16 11:05:56;;;;;;;4.78;4.05;;;11.90;99.90;;;;;;4888684;29;20068;-79
2022/11/16 11:08:29;;;;;;;4.88;3.60;;;12.10;99.90;;;;;;4893804;29;20060;-78
2022/11/16 11:12:36;;;;;;;4.47;3.45;;;12.00;99.90;;;;;;4893353;29;20105;-78
2022/11/16 11:14:09;;;;;;;3.55;2.95;;;12.10;99.90;;;;;;4880676;29;20402;-78
2022/11/16 11:16:34;;;;;;;3.25;2.90;;;12.30;99.90;;;;;;4892828;29;20059;-79
2022/11/16 11:19:24;;;;;;;8.63;5.68;;;12.30;99.90;;;;;;4871853;29;20057;-78
2022/11/16 11:21:56;;;;;;;9.32;6.32;;;12.50;99.90;;;;;;4889479;29;20055;-70
2022/11/16 11:24:21;;;;;;;9.52;5.80;;;12.70;99.90;;;;;;4902743;29;20051;-69
2022/11/16 11:26:53;;;;;;;6.07;5.03;;;12.90;99.90;;;;;;4886247;29;20049;-69
2022/11/16 11:29:36;;;;;;;5.30;4.43;;;13.00;99.90;;;;;;4891657;29;20040;-69
2022/11/16 11:32:17;;;;;;;5.90;3.80;;;13.10;99.90;;;;;;4874910;29;20055;-71
2022/11/16 11:34:46;;;;;;;4.60;4.10;;;13.30;99.90;;;;;;4891936;29;20119;-79
2022/11/16 11:37:17;;;;;;;5.90;3.75;;;13.20;99.90;;;;;;4894028;29;20150;-78
2022/11/16 11:39:43;;;;;;;3.80;3.05;;;12.90;99.90;;;;;;4891367;29;20381;-78
2022/11/16 11:42:12;;;;;;;5.57;4.65;;;12.80;99.90;;;;;;4891838;29;20523;-77
2022/11/16 11:45:00;;;;;;;7.32;4.43;;;12.70;99.90;;;;;;4893230;29;20048;-78
2022/11/16 11:47:50;;;;;;;6.55;3.83;;;12.60;99.90;;;;;;4894062;29;20535;-77
2022/11/16 11:50:40;;;;;;;4.15;3.72;;;12.50;99.90;;;;;;4881095;29;20119;-78
2022/11/16 11:53:43;;;;;;;5.15;3.75;;;12.30;99.90;;;;;;4890089;29;20040;-78
2022/11/16 11:56:13;;;;;;;5.63;3.65;;;12.10;99.90;;;;;;4887496;29;20564;-77
2022/11/16 11:58:41;;;;;;;4.47;3.80;;;12.00;99.90;;;;;;4889528;29;20111;-78
2022/11/16 12:01:36;;;;;;;5.22;3.50;;;12.10;99.90;;;;;;4872729;29;20123;-77
2022/11/16 12:04:11;;;;;;;5.10;4.28;;;12.10;99.90;;;;;;4886875;29;20056;-78
2022/11/16 12:06:42;;;;;;;4.25;3.60;;;12.20;99.90;;;;;;4900771;29;20064;-78
2022/11/16 12:09:30;;;;;;;7.00;4.78;;;12.40;99.90;;;;;;4888437;29;20044;-79
2022/11/16 12:12:31;;;;;;;6.80;5.00;;;12.50;99.90;;;;;;4869331;29;20155;-78
2022/11/16 12:15:18;;;;;;;7.65;5.05;;;12.50;99.90;;;;;;4881818;29;20083;-79
2022/11/16 12:18:12;;;;;;;8.52;4.50;;;12.70;99.90;;;;;;4864452;29;20052;-70
2022/11/16 12:20:59;;;;;;;4.22;3.63;;;13.10;99.90;;;;;;4881951;29;20119;-71
2022/11/16 12:23:42;;;;;;;4.75;3.30;;;13.40;99.90;;;;;;4885800;29;20060;-70
2022/11/16 12:26:38;;;;;;;5.20;3.33;;;13.70;99.90;;;;;;4890558;29;20087;-70
2022/11/16 12:29:43;;;;;;;5.50;3.10;;;13.80;99.90;;;;;;4889264;29;20131;-71
2022/11/16 12:32:41;;;;;;;5.05;2.50;;;14.10;99.90;;;;;;4890149;29;20052;-72
2022/11/16 12:35:36;;;;;;;3.75;2.00;;;14.10;99.90;;;;;;4891825;29;20044;-73
2022/11/16 12:38:11;;;;;;;7.07;2.55;;;14.20;99.90;;;;;;4886341;29;20264;-73
2022/11/16 12:40:49;;;;;;;5.38;2.30;;;14.20;99.90;;;;;;4888539;29;20064;-71
2022/11/16 12:43:40;;;;;;;4.43;2.03;;;14.20;99.90;;;;;;4891223;29;20048;-71
2022/11/16 12:46:31;;;;;;;5.60;2.47;;;14.20;99.90;;;;;;4903178;29;20051;-72
2022/11/16 12:49:12;;;;;;;4.97;2.20;;;14.20;99.90;;;;;;4882787;29;20060;-71
2022/11/16 12:52:03;;;;;;;5.90;2.13;;;14.20;99.90;;;;;;4894595;29;20408;-71
2022/11/16 12:55:16;;;;;;;3.78;1.55;;;14.00;99.90;;;;;;4881968;29;20095;-69
2022/11/16 12:58:02;;;;;;;2.03;1.50;;;13.70;99.90;;;;;;4910411;29;20449;-71
2022/11/16 13:00:43;;;;;;;1.50;1.27;;;13.50;99.90;;;;;;4880970;29;20056;-71
2022/11/16 13:03:33;;;;;;;3.03;1.45;;;13.50;99.90;;;;;;4894427;29;20040;-71
2022/11/16 13:06:06;;;;;;;2.78;1.50;;;13.20;99.90;;;;;;4896461;29;20037;-71
2022/11/16 13:08:47;;;;;;;4.22;1.77;;;13.10;99.90;;;;;;4897452;29;20049;-70
2022/11/16 13:11:27;;;;;;;4.85;1.30;;;12.90;99.90;;;;;;4879347;29;20055;-70
2022/11/16 13:14:16;;;;;;;3.25;1.38;;;12.80;99.90;;;;;;4884240;29;20123;-70
2022/11/16 13:16:42;;;;;;;4.53;1.50;;;12.80;99.90;;;;;;4894212;29;20349;-70
2022/11/16 13:19:11;;;;;;;3.47;1.58;;;13.00;99.90;;;;;;4895001;29;20058;-70
2022/11/16 13:21:53;;;;;;;4.00;1.50;;;13.10;99.90;;;;;;4863553;29;20080;-70
2022/11/16 13:24:25;;;;;;;3.78;1.42;;;13.20;99.90;;;;;;4878649;29;20044;-71
2022/11/16 13:27:19;;;;;;;4.00;1.40;;;13.30;99.90;;;;;;4896666;29;20503;-71
2022/11/16 13:29:50;;;;;;;2.85;1.30;;;13.40;99.90;;;;;;4893620;29;20087;-71
2022/11/16 13:32:31;;;;;;;5.82;1.83;;;13.40;99.90;;;;;;4895097;29;20064;-71
2022/11/16 13:34:58;;;;;;;2.25;1.02;;;13.40;99.90;;;;;;4894544;29;20519;-71
2022/11/16 13:37:36;;;;;;;3.80;1.58;;;13.40;99.90;;;;;;4881329;29;20054;-71
2022/11/16 13:40:04;;;;;;;4.60;1.60;;;13.40;99.90;;;;;;4894754;29;20072;-71
2022/11/16 13:42:33;;;;;;;2.92;1.27;;;13.30;99.90;;;;;;4890384;29;20036;-70
2022/11/16 13:45:18;;;;;;;3.70;1.35;;;13.20;99.90;;;;;;4886552;29;20056;-70
2022/11/16 13:47:55;;;;;;;1.92;1.10;;;13.10;99.90;;;;;;4890152;29;20503;-70
2022/11/16 13:50:33;;;;;;;2.78;1.10;;;13.10;99.90;;;;;;4879300;29;20040;-70
2022/11/16 13:53:06;;;;;;;1.77;1.00;;;13.00;99.90;;;;;;4893605;29;20032;-70
2022/11/16 13:55:31;;;;;;;1.95;0.95;;;12.90;99.90;;;;;;4892376;29;20497;-71
2022/11/16 13:57:59;;;;;;;1.88;1.00;;;12.90;99.90;;;;;;4890584;29;20108;-71